Time;durP1;ratioP1;P1;durP2;ratioP2;P2;SDS_P1;SDS_P2;PMS_P1;PMS_P2;Temp;Humidity;BMP_temperature;BMP_pressure;BME280_temperature;BME280_humidity;BME280_pressure;Samples;Min_cycle;Max_cycle;Signal;HPM_P1;HPM_P2
2023/12/23 00:01:30;;;;;;;1.80;1.15;;;15.80;61.80;;;;;;5093143;28;20176;-66
2023/12/23 00:03:55;;;;;;;2.30;0.95;;;15.90;61.80;;;;;;5094014;28;20166;-66
2023/12/23 00:06:21;;;;;;;1.88;0.75;;;15.90;61.90;;;;;;5093567;28;20178;-66
2023/12/23 00:08:46;;;;;;;2.70;1.40;;;15.80;61.70;;;;;;5093091;28;20272;-67
2023/12/23 00:11:12;;;;;;;3.65;1.40;;;15.80;61.80;;;;;;5093710;28;20277;-67
2023/12/23 00:13:37;;;;;;;1.70;0.90;;;15.80;61.90;;;;;;5093625;28;20249;-67
2023/12/23 00:16:03;;;;;;;2.08;0.68;;;15.80;61.80;;;;;;5093143;28;20235;-67
2023/12/23 00:18:29;;;;;;;1.42;0.80;;;15.80;61.80;;;;;;5093362;28;20207;-66
2023/12/23 00:20:54;;;;;;;0.85;0.57;;;15.70;61.80;;;;;;5093062;28;20223;-66
2023/12/23 00:23:20;;;;;;;1.33;1.00;;;15.70;61.80;;;;;;5093051;28;20180;-67
2023/12/23 00:25:45;;;;;;;2.05;0.82;;;15.80;61.80;;;;;;5093316;28;20268;-66
2023/12/23 00:28:11;;;;;;;1.17;0.73;;;15.70;61.80;;;;;;5092625;28;20265;-66
2023/12/23 00:30:36;;;;;;;1.20;0.70;;;15.70;61.80;;;;;;5093244;28;20209;-66
2023/12/23 00:33:02;;;;;;;2.05;0.98;;;15.80;61.90;;;;;;5093435;28;20189;-66
2023/12/23 00:35:28;;;;;;;2.53;1.17;;;15.80;62.00;;;;;;5092114;28;20210;-67
2023/12/23 00:37:53;;;;;;;2.35;0.80;;;15.70;61.90;;;;;;5093154;28;20223;-67
2023/12/23 00:40:19;;;;;;;2.42;0.95;;;15.70;61.90;;;;;;5092833;28;20169;-66
2023/12/23 00:42:44;;;;;;;2.17;0.60;;;15.70;61.90;;;;;;5092332;28;20170;-66
2023/12/23 00:45:10;;;;;;;2.58;0.95;;;15.70;61.90;;;;;;5093228;28;20176;-66
2023/12/23 00:47:35;;;;;;;2.67;1.13;;;15.70;61.90;;;;;;5092872;28;20180;-66
2023/12/23 00:50:01;;;;;;;1.73;0.80;;;15.70;61.90;;;;;;5092233;28;20256;-66
2023/12/23 00:52:28;;;;;;;2.95;1.05;;;15.70;61.90;;;;;;5092461;28;20236;-67
2023/12/23 00:54:54;;;;;;;1.65;0.90;;;15.70;61.90;;;;;;5092367;28;20623;-66
2023/12/23 00:57:20;;;;;;;2.08;0.85;;;15.70;61.90;;;;;;5092006;28;20193;-66
2023/12/23 00:59:45;;;;;;;2.45;0.80;;;15.70;61.90;;;;;;5093029;28;20686;-66
2023/12/23 01:02:11;;;;;;;1.85;0.80;;;15.70;62.00;;;;;;5092949;28;20584;-65
2023/12/23 01:04:38;;;;;;;1.60;0.85;;;15.70;61.90;;;;;;5091849;28;20249;-65
2023/12/23 01:07:03;;;;;;;2.40;0.70;;;15.70;61.90;;;;;;5092804;28;20252;-66
2023/12/23 01:09:30;;;;;;;3.05;1.10;;;15.70;61.90;;;;;;5092210;28;20671;-67
2023/12/23 01:11:55;;;;;;;2.13;0.90;;;15.60;61.90;;;;;;5091886;28;20213;-66
2023/12/23 01:14:21;;;;;;;1.50;0.82;;;15.70;62.00;;;;;;5092521;28;20201;-66
2023/12/23 01:16:47;;;;;;;1.83;0.60;;;15.60;61.90;;;;;;5074542;28;20296;-66
2023/12/23 01:19:12;;;;;;;1.45;0.70;;;15.60;61.90;;;;;;5091937;28;20185;-66
2023/12/23 01:21:38;;;;;;;1.65;0.75;;;15.60;61.90;;;;;;5092245;28;20212;-66
2023/12/23 01:24:03;;;;;;;1.58;0.85;;;15.60;61.90;;;;;;5092395;28;20166;-66
2023/12/23 01:26:30;;;;;;;2.72;1.15;;;15.60;61.90;;;;;;5091641;28;20535;-65
2023/12/23 01:29:00;;;;;;;1.95;1.17;;;15.60;62.00;;;;;;5092363;28;20620;-66
2023/12/23 01:31:28;;;;;;;1.10;1.00;;;15.60;61.90;;;;;;5091380;28;20636;-66
2023/12/23 01:33:54;;;;;;;2.38;1.00;;;15.60;61.90;;;;;;5092386;28;20195;-66
2023/12/23 01:36:19;;;;;;;2.13;1.00;;;15.60;61.90;;;;;;5091912;28;20668;-66
2023/12/23 01:38:45;;;;;;;1.92;0.88;;;15.60;61.90;;;;;;5091428;28;20170;-66
2023/12/23 01:41:10;;;;;;;1.55;0.90;;;15.60;61.90;;;;;;5092243;28;20223;-66
2023/12/23 01:43:36;;;;;;;2.67;0.90;;;15.60;62.00;;;;;;5092133;28;20178;-66
2023/12/23 01:46:02;;;;;;;1.60;0.85;;;15.60;62.00;;;;;;5091605;28;20271;-66
2023/12/23 01:48:28;;;;;;;2.03;1.00;;;15.60;61.90;;;;;;5091927;28;20172;-66
2023/12/23 01:50:54;;;;;;;1.63;0.80;;;15.60;62.00;;;;;;5092158;28;20648;-66
2023/12/23 01:53:20;;;;;;;1.77;1.00;;;15.60;62.00;;;;;;5073106;28;20263;-67
2023/12/23 01:55:45;;;;;;;3.10;0.90;;;15.50;61.90;;;;;;5092190;28;20213;-67
2023/12/23 01:58:11;;;;;;;2.25;0.82;;;15.50;61.90;;;;;;5092248;28;20230;-66
2023/12/23 02:00:36;;;;;;;1.88;0.98;;;15.50;61.90;;;;;;5073036;28;20578;-65
2023/12/23 02:03:02;;;;;;;1.92;0.60;;;15.50;61.90;;;;;;5091993;28;20170;-66
2023/12/23 02:05:28;;;;;;;1.45;1.00;;;15.50;61.90;;;;;;5073792;28;20238;-65
2023/12/23 02:07:53;;;;;;;1.95;1.13;;;15.50;62.00;;;;;;5093487;28;20174;-67
2023/12/23 02:10:19;;;;;;;1.83;0.77;;;15.50;62.10;;;;;;5096058;28;20170;-67
2023/12/23 02:13:08;;;;;;;2.20;0.82;;;15.50;62.00;;;;;;5078072;28;20178;-66
2023/12/23 02:15:33;;;;;;;2.30;1.00;;;15.50;62.10;;;;;;5095056;28;20307;-66
2023/12/23 02:18:00;;;;;;;2.20;1.10;;;15.50;62.00;;;;;;5077780;28;20633;-66
2023/12/23 02:20:25;;;;;;;3.85;1.15;;;15.50;62.10;;;;;;5095612;28;20258;-66
2023/12/23 02:22:51;;;;;;;3.15;0.90;;;15.50;62.10;;;;;;5095376;28;20193;-66
2023/12/23 02:25:16;;;;;;;1.67;0.70;;;15.50;62.10;;;;;;5095688;28;20174;-65
2023/12/23 02:27:52;;;;;;;1.33;0.80;;;15.50;62.20;;;;;;5076898;28;20174;-67
2023/12/23 02:30:17;;;;;;;2.50;0.80;;;15.50;62.10;;;;;;5077776;28;20264;-66
2023/12/23 02:32:43;;;;;;;1.77;0.88;;;15.50;62.10;;;;;;5077502;28;20268;-66
2023/12/23 02:35:09;;;;;;;1.50;1.05;;;15.50;62.10;;;;;;5076585;28;20236;-66
2023/12/23 02:37:34;;;;;;;2.08;0.80;;;15.50;62.10;;;;;;5095441;28;20188;-67
2023/12/23 02:40:00;;;;;;;1.95;0.95;;;15.50;62.20;;;;;;5095768;28;20193;-67
2023/12/23 02:42:25;;;;;;;2.00;0.70;;;15.50;62.10;;;;;;5076691;28;20227;-67
2023/12/23 02:44:51;;;;;;;2.33;1.00;;;15.50;62.60;;;;;;5095539;28;20656;-66
2023/12/23 02:47:19;;;;;;;1.88;0.80;;;15.40;62.00;;;;;;5095041;28;20227;-66
2023/12/23 02:49:45;;;;;;;2.17;1.00;;;15.40;62.10;;;;;;5094918;28;20215;-67
2023/12/23 02:52:10;;;;;;;1.60;0.93;;;15.40;62.10;;;;;;5095117;28;20221;-66
2023/12/23 02:54:36;;;;;;;2.50;0.90;;;15.40;62.10;;;;;;5095132;28;20173;-66
2023/12/23 02:57:01;;;;;;;1.80;0.95;;;15.40;62.10;;;;;;5094604;28;20209;-66
2023/12/23 02:59:27;;;;;;;1.95;0.77;;;15.40;62.10;;;;;;5094831;28;20173;-66
2023/12/23 03:01:53;;;;;;;1.55;1.02;;;15.40;62.10;;;;;;5095004;28;20178;-65
2023/12/23 03:04:19;;;;;;;1.70;0.90;;;15.40;62.10;;;;;;5094183;28;20180;-65
2023/12/23 03:06:44;;;;;;;2.05;0.80;;;15.40;62.10;;;;;;5095173;28;20249;-66
2023/12/23 03:09:10;;;;;;;2.35;0.80;;;15.30;62.00;;;;;;5095060;28;20174;-67
2023/12/23 03:11:37;;;;;;;1.42;0.80;;;15.40;62.10;;;;;;5093861;28;20170;-66
2023/12/23 03:14:03;;;;;;;1.73;0.77;;;15.40;62.10;;;;;;5094855;28;20189;-66
2023/12/23 03:16:33;;;;;;;1.63;1.00;;;15.40;62.10;;;;;;5094539;28;20289;-65
2023/12/23 03:19:00;;;;;;;2.08;0.93;;;15.40;62.10;;;;;;5094022;28;20175;-66
2023/12/23 03:21:25;;;;;;;2.00;1.15;;;15.40;62.20;;;;;;5094477;28;20177;-66
2023/12/23 03:23:51;;;;;;;1.20;0.98;;;15.40;62.20;;;;;;5094025;28;20166;-65
2023/12/23 03:26:16;;;;;;;1.80;0.80;;;15.40;62.20;;;;;;5094386;28;20178;-66
2023/12/23 03:28:42;;;;;;;2.92;0.90;;;15.40;62.30;;;;;;5094658;28;20166;-66
2023/12/23 03:31:07;;;;;;;1.55;0.82;;;15.40;62.20;;;;;;5093878;28;20181;-66
2023/12/23 03:33:33;;;;;;;1.20;0.90;;;15.40;62.20;;;;;;5094380;28;20177;-66
2023/12/23 03:35:59;;;;;;;0.95;0.80;;;15.40;62.40;;;;;;5094584;28;20213;-67
2023/12/23 03:38:24;;;;;;;2.13;0.80;;;15.40;62.30;;;;;;5093370;28;20624;-66
2023/12/23 03:40:50;;;;;;;0.98;0.60;;;15.40;62.40;;;;;;5094406;28;20182;-66
2023/12/23 03:43:15;;;;;;;2.25;1.02;;;15.40;62.40;;;;;;5094048;28;20166;-66
2023/12/23 03:45:41;;;;;;;1.75;0.73;;;15.30;62.30;;;;;;5093595;28;20878;-66
2023/12/23 03:48:06;;;;;;;1.48;0.80;;;15.30;62.30;;;;;;5094433;28;20716;-66
2023/12/23 03:50:32;;;;;;;1.27;0.82;;;15.30;62.30;;;;;;5094104;28;20668;-66
2023/12/23 03:52:58;;;;;;;1.30;0.80;;;15.30;62.30;;;;;;5093320;28;20228;-66
2023/12/23 03:55:32;;;;;;;1.90;0.88;;;15.30;62.30;;;;;;5093796;28;20213;-66
2023/12/23 03:58:00;;;;;;;2.05;1.00;;;15.30;62.40;;;;;;5093960;28;20591;-66
2023/12/23 04:00:26;;;;;;;1.52;0.95;;;15.30;62.40;;;;;;5092899;28;20201;-66
2023/12/23 04:02:52;;;;;;;2.10;0.80;;;15.30;62.40;;;;;;5094082;28;20205;-66
2023/12/23 04:05:17;;;;;;;0.77;0.68;;;15.30;62.40;;;;;;5093694;28;20183;-66
2023/12/23 04:07:43;;;;;;;2.80;0.85;;;15.30;62.40;;;;;;5093240;28;20864;-67
2023/12/23 04:10:09;;;;;;;1.63;1.00;;;15.30;62.40;;;;;;5093753;28;20727;-66
2023/12/23 04:12:34;;;;;;;2.42;1.00;;;15.30;62.50;;;;;;5093469;28;20173;-66
2023/12/23 04:15:00;;;;;;;1.50;0.90;;;15.30;62.50;;;;;;5092911;28;20617;-66
2023/12/23 04:17:25;;;;;;;2.08;1.10;;;15.30;62.50;;;;;;5093578;28;20541;-67
2023/12/23 04:19:51;;;;;;;1.42;0.88;;;15.30;62.50;;;;;;5093724;28;20691;-66
2023/12/23 04:22:16;;;;;;;1.80;1.00;;;15.30;62.50;;;;;;5092596;28;20713;-66
2023/12/23 04:24:42;;;;;;;1.65;0.98;;;15.30;62.50;;;;;;5093606;28;20170;-65
2023/12/23 04:27:08;;;;;;;1.13;0.70;;;15.30;62.50;;;;;;5092828;28;20523;-66
2023/12/23 04:29:33;;;;;;;2.38;1.00;;;15.30;62.50;;;;;;5092697;28;20174;-67
2023/12/23 04:31:59;;;;;;;1.05;0.80;;;15.30;62.50;;;;;;5093447;28;20186;-66
2023/12/23 04:34:24;;;;;;;1.48;0.93;;;15.30;62.60;;;;;;5092467;28;20235;-67
2023/12/23 04:36:50;;;;;;;2.63;0.95;;;15.20;62.50;;;;;;5093353;28;20209;-67
2023/12/23 04:39:15;;;;;;;1.50;0.90;;;15.20;62.50;;;;;;5092952;28;20165;-67
2023/12/23 04:41:46;;;;;;;1.85;0.75;;;15.20;62.50;;;;;;5092562;28;20174;-67
2023/12/23 04:44:15;;;;;;;2.33;0.80;;;15.30;62.60;;;;;;5093484;28;20185;-66
2023/12/23 04:46:41;;;;;;;2.38;1.10;;;15.30;62.60;;;;;;5093317;28;20174;-66
2023/12/23 04:49:07;;;;;;;1.40;0.80;;;15.20;62.50;;;;;;5074275;28;20177;-66
2023/12/23 04:51:33;;;;;;;2.00;0.82;;;15.20;62.50;;;;;;5092807;28;20248;-66
2023/12/23 04:53:58;;;;;;;1.83;1.00;;;15.20;62.50;;;;;;5092822;28;20375;-67
2023/12/23 04:56:24;;;;;;;3.40;1.23;;;15.20;62.60;;;;;;5091895;28;20251;-67
2023/12/23 04:58:49;;;;;;;1.40;0.93;;;15.20;62.60;;;;;;5092889;28;20174;-66
2023/12/23 05:01:15;;;;;;;3.60;1.20;;;15.20;62.60;;;;;;5092660;28;20178;-66
2023/12/23 05:03:41;;;;;;;2.53;1.00;;;15.20;62.60;;;;;;5092266;28;20169;-66
2023/12/23 05:06:07;;;;;;;3.20;1.48;;;15.20;62.60;;;;;;5092831;28;20174;-67
2023/12/23 05:08:32;;;;;;;1.98;1.00;;;15.20;62.60;;;;;;5092410;28;20651;-66
2023/12/23 05:10:58;;;;;;;1.95;1.45;;;15.20;62.70;;;;;;5091924;28;20224;-67
2023/12/23 05:13:24;;;;;;;1.42;0.65;;;15.20;62.70;;;;;;5092326;28;20696;-67
2023/12/23 05:15:50;;;;;;;1.88;1.05;;;15.20;62.60;;;;;;5092648;28;20308;-66
2023/12/23 05:18:16;;;;;;;1.02;0.80;;;15.20;62.60;;;;;;5091696;28;20252;-66
2023/12/23 05:20:41;;;;;;;3.33;0.80;;;15.20;62.70;;;;;;5092660;28;20273;-66
2023/12/23 05:23:07;;;;;;;2.20;1.00;;;15.20;62.70;;;;;;5092498;28;20589;-66
2023/12/23 05:25:33;;;;;;;1.98;1.02;;;15.20;62.70;;;;;;5091295;28;20215;-66
2023/12/23 05:27:58;;;;;;;1.35;0.88;;;15.20;62.70;;;;;;5092696;28;20227;-66
2023/12/23 05:30:24;;;;;;;2.95;1.25;;;15.20;62.70;;;;;;5091538;28;20196;-66
2023/12/23 05:32:49;;;;;;;2.10;0.88;;;15.20;62.70;;;;;;5092293;28;20655;-65
2023/12/23 05:35:15;;;;;;;2.47;0.90;;;15.20;62.70;;;;;;5092073;28;20196;-67
2023/12/23 05:37:40;;;;;;;1.95;1.00;;;15.10;62.70;;;;;;5091742;28;20527;-66
2023/12/23 05:40:06;;;;;;;2.13;1.10;;;15.20;62.70;;;;;;5092208;28;20514;-66
2023/12/23 05:42:32;;;;;;;2.67;1.00;;;15.10;62.70;;;;;;5091812;28;20190;-66
2023/12/23 05:44:57;;;;;;;1.58;0.90;;;15.20;62.80;;;;;;5091692;28;20170;-65
2023/12/23 05:47:23;;;;;;;2.45;1.40;;;15.20;62.70;;;;;;5092072;28;20173;-66
2023/12/23 05:49:49;;;;;;;2.63;1.10;;;15.20;62.70;;;;;;5092280;28;20169;-66
2023/12/23 05:52:14;;;;;;;2.78;1.65;;;15.20;62.70;;;;;;5090235;28;20692;-66
2023/12/23 05:54:39;;;;;;;3.20;1.40;;;15.20;62.60;;;;;;5092124;28;20199;-66
2023/12/23 05:57:05;;;;;;;3.10;0.88;;;15.20;62.50;;;;;;5092039;28;20213;-66
2023/12/23 05:59:32;;;;;;;3.15;1.00;;;15.20;62.50;;;;;;5091009;28;20174;-66
2023/12/23 06:01:57;;;;;;;2.15;1.00;;;15.30;62.50;;;;;;5092115;28;20177;-65
2023/12/23 06:04:23;;;;;;;2.72;1.38;;;15.30;62.60;;;;;;5091852;28;20636;-65
2023/12/23 06:06:48;;;;;;;3.70;1.23;;;15.30;62.50;;;;;;5091475;28;20249;-66
2023/12/23 06:09:14;;;;;;;1.92;1.15;;;15.30;62.50;;;;;;5091721;28;20707;-67
2023/12/23 06:11:39;;;;;;;1.77;0.90;;;15.30;62.60;;;;;;5091941;28;20174;-66
2023/12/23 06:14:05;;;;;;;3.00;1.20;;;15.30;62.60;;;;;;5091226;28;20550;-66
2023/12/23 06:16:30;;;;;;;2.83;1.10;;;15.20;62.50;;;;;;5091546;28;20248;-66
2023/12/23 06:18:56;;;;;;;3.13;1.15;;;15.20;62.60;;;;;;5091857;28;20177;-66
2023/12/23 06:21:21;;;;;;;1.67;1.30;;;15.20;62.60;;;;;;5090882;28;20174;-67
2023/12/23 06:23:47;;;;;;;1.88;0.90;;;15.20;62.60;;;;;;5091871;28;20162;-66
2023/12/23 06:26:12;;;;;;;3.28;1.30;;;15.20;62.60;;;;;;5091916;28;20182;-66
2023/12/23 06:28:38;;;;;;;1.52;1.25;;;15.30;62.60;;;;;;5091254;28;20166;-65
2023/12/23 06:31:04;;;;;;;2.97;1.15;;;15.30;62.60;;;;;;5091911;28;20182;-66
2023/12/23 06:33:29;;;;;;;1.05;0.93;;;15.30;62.50;;;;;;5091469;28;20170;-67
2023/12/23 06:35:55;;;;;;;2.42;0.90;;;15.30;62.50;;;;;;5090923;28;20205;-66
2023/12/23 06:38:20;;;;;;;2.50;0.90;;;15.30;62.60;;;;;;5091532;28;20200;-66
2023/12/23 06:40:46;;;;;;;2.88;1.40;;;15.30;62.60;;;;;;5090995;28;20170;-66
2023/12/23 06:43:11;;;;;;;3.58;1.27;;;15.30;62.70;;;;;;5091991;28;20174;-66
2023/12/23 06:45:37;;;;;;;2.15;1.17;;;15.30;62.70;;;;;;5091517;28;20173;-66
2023/12/23 06:48:02;;;;;;;2.08;0.98;;;15.30;62.70;;;;;;5090915;28;20976;-66
2023/12/23 06:50:28;;;;;;;2.42;1.25;;;15.30;62.70;;;;;;5091378;28;20180;-66
2023/12/23 06:52:54;;;;;;;2.10;1.08;;;15.30;62.60;;;;;;5092033;28;20236;-66
2023/12/23 06:55:19;;;;;;;2.28;0.98;;;15.40;62.80;;;;;;5094136;28;20607;-66
2023/12/23 06:57:45;;;;;;;1.20;0.80;;;15.40;62.70;;;;;;5095389;28;20210;-66
2023/12/23 07:00:14;;;;;;;1.67;1.10;;;15.60;62.80;;;;;;5095314;28;20585;-65
2023/12/23 07:02:40;;;;;;;2.25;1.10;;;15.70;62.50;;;;;;5094572;28;20173;-65
2023/12/23 07:05:05;;;;;;;3.67;1.30;;;15.80;62.20;;;;;;5095120;28;20174;-65
2023/12/23 07:07:31;;;;;;;2.00;1.00;;;16.00;61.90;;;;;;5094643;28;20227;-66
2023/12/23 07:09:58;;;;;;;3.25;1.10;;;16.10;61.70;;;;;;5094171;28;20180;-66
2023/12/23 07:12:24;;;;;;;3.70;1.45;;;16.30;61.20;;;;;;5094864;28;20181;-66
2023/12/23 07:14:49;;;;;;;2.05;1.17;;;16.40;60.80;;;;;;5095054;28;20170;-66
2023/12/23 07:17:15;;;;;;;2.80;1.25;;;16.60;60.60;;;;;;5093897;28;20201;-65
2023/12/23 07:19:40;;;;;;;2.03;1.13;;;16.70;60.30;;;;;;5094650;28;20648;-66
2023/12/23 07:22:06;;;;;;;1.02;0.68;;;16.80;60.10;;;;;;5094675;28;20703;-65
2023/12/23 07:24:31;;;;;;;2.10;1.15;;;16.90;59.90;;;;;;5093691;28;20177;-66
2023/12/23 07:26:57;;;;;;;1.90;0.90;;;16.90;59.80;;;;;;5094844;28;20652;-65
2023/12/23 07:29:22;;;;;;;2.30;0.80;;;16.90;59.80;;;;;;5094497;28;20177;-66
2023/12/23 07:31:48;;;;;;;3.70;0.85;;;17.00;59.60;;;;;;5093786;28;20178;-66
2023/12/23 07:34:13;;;;;;;2.67;1.13;;;17.10;59.50;;;;;;5094461;28;20178;-67
2023/12/23 07:36:39;;;;;;;1.63;1.15;;;17.10;59.30;;;;;;5094488;28;20283;-67
2023/12/23 07:39:05;;;;;;;1.88;0.70;;;17.20;59.20;;;;;;5093736;28;20762;-67
2023/12/23 07:41:30;;;;;;;1.77;0.90;;;17.20;59.20;;;;;;5094347;28;20182;-67
2023/12/23 07:43:56;;;;;;;1.88;1.00;;;17.20;59.20;;;;;;5094468;28;20177;-67
2023/12/23 07:46:22;;;;;;;2.35;1.08;;;17.20;59.20;;;;;;5093303;28;20178;-66
2023/12/23 07:48:47;;;;;;;0.90;0.80;;;17.20;59.20;;;;;;5094305;28;20173;-66
2023/12/23 07:51:13;;;;;;;2.40;1.30;;;17.20;59.20;;;;;;5093427;28;20210;-67
2023/12/23 07:53:41;;;;;;;2.10;1.10;;;17.10;59.30;;;;;;5093909;28;20229;-67
2023/12/23 07:56:07;;;;;;;2.58;1.08;;;17.10;59.30;;;;;;5094158;28;20220;-67
2023/12/23 07:58:33;;;;;;;2.25;0.77;;;17.00;59.40;;;;;;5093264;28;20178;-67
2023/12/23 08:00:58;;;;;;;2.13;1.10;;;17.00;59.60;;;;;;5094150;28;20738;-66
2023/12/23 08:03:24;;;;;;;2.22;1.10;;;17.00;59.60;;;;;;5093724;28;20170;-66
2023/12/23 08:05:49;;;;;;;2.55;1.00;;;17.10;59.60;;;;;;5092199;28;20181;-67
2023/12/23 08:08:15;;;;;;;1.83;0.90;;;17.10;59.60;;;;;;5093519;28;20166;-67
2023/12/23 08:10:40;;;;;;;2.55;0.90;;;17.10;59.60;;;;;;5093922;28;20174;-67
2023/12/23 08:13:06;;;;;;;2.00;1.05;;;17.10;59.60;;;;;;5093184;28;20213;-67
2023/12/23 08:15:32;;;;;;;2.72;0.98;;;17.10;59.60;;;;;;5093483;28;20229;-67
2023/12/23 08:17:57;;;;;;;1.92;1.02;;;17.10;59.60;;;;;;5093711;28;20204;-66
2023/12/23 08:20:23;;;;;;;2.28;0.93;;;17.10;59.50;;;;;;5092640;28;20173;-67
2023/12/23 08:22:50;;;;;;;2.28;0.93;;;17.20;59.50;;;;;;5093379;28;20528;-66
2023/12/23 08:25:15;;;;;;;2.65;0.90;;;17.20;59.60;;;;;;5093639;28;20266;-67
2023/12/23 08:27:41;;;;;;;2.42;1.02;;;17.20;59.50;;;;;;5092964;28;20253;-67
2023/12/23 08:30:07;;;;;;;1.45;1.00;;;17.20;59.60;;;;;;5093576;28;20256;-67
2023/12/23 08:32:32;;;;;;;2.15;0.90;;;17.20;59.50;;;;;;5093185;28;20166;-67
2023/12/23 08:34:58;;;;;;;3.10;1.08;;;17.20;59.50;;;;;;5092667;28;20556;-67
2023/12/23 08:37:24;;;;;;;2.55;1.15;;;17.30;59.40;;;;;;5092846;28;20647;-66
2023/12/23 08:39:50;;;;;;;2.53;1.10;;;17.30;59.40;;;;;;5093515;28;20173;-67
2023/12/23 08:42:15;;;;;;;2.28;0.90;;;17.30;59.40;;;;;;5092580;28;20174;-67
2023/12/23 08:44:41;;;;;;;2.70;1.05;;;17.30;59.50;;;;;;5093311;28;20174;-66
2023/12/23 08:47:06;;;;;;;1.77;0.80;;;17.30;59.40;;;;;;5093162;28;20170;-67
2023/12/23 08:49:32;;;;;;;2.38;1.10;;;17.30;59.40;;;;;;5092072;28;20667;-67
2023/12/23 08:51:57;;;;;;;1.92;1.13;;;17.20;59.50;;;;;;5092725;28;20371;-67
2023/12/23 08:54:23;;;;;;;2.03;0.90;;;17.30;59.40;;;;;;5092018;28;20174;-67
2023/12/23 08:56:48;;;;;;;1.73;0.90;;;17.30;59.50;;;;;;5092980;28;20209;-67
2023/12/23 08:59:14;;;;;;;1.17;1.00;;;17.30;60.20;;;;;;5092698;28;20195;-66
2023/12/23 09:01:40;;;;;;;1.80;0.80;;;17.30;59.70;;;;;;5092242;28;20234;-66
2023/12/23 09:04:05;;;;;;;2.20;0.80;;;17.30;59.40;;;;;;5092738;28;20231;-66
2023/12/23 09:06:31;;;;;;;2.67;0.85;;;17.30;59.40;;;;;;5092394;28;20192;-67
2023/12/23 09:08:57;;;;;;;2.60;1.00;;;17.30;59.30;;;;;;5092268;28;20262;-67
2023/12/23 09:11:23;;;;;;;2.42;1.27;;;17.30;59.40;;;;;;5092237;28;20178;-68
2023/12/23 09:13:49;;;;;;;1.80;1.00;;;17.30;59.40;;;;;;5092720;28;20197;-67
2023/12/23 09:16:14;;;;;;;2.00;1.17;;;17.30;59.40;;;;;;5091263;28;20612;-67
2023/12/23 09:18:40;;;;;;;3.22;0.98;;;17.30;59.30;;;;;;5074430;28;20647;-66
2023/12/23 09:21:05;;;;;;;2.92;1.10;;;17.30;59.30;;;;;;5092325;28;20174;-67
2023/12/23 09:23:31;;;;;;;1.27;0.88;;;17.30;59.30;;;;;;5091727;28;20162;-66
2023/12/23 09:25:56;;;;;;;3.10;1.00;;;17.20;59.40;;;;;;5092607;28;20186;-67
2023/12/23 09:28:22;;;;;;;3.45;1.58;;;17.20;59.50;;;;;;5092296;28;20176;-66
2023/12/23 09:30:47;;;;;;;1.42;0.88;;;17.10;59.50;;;;;;5091992;28;20577;-66
2023/12/23 09:33:13;;;;;;;3.00;1.40;;;17.00;59.60;;;;;;5092337;28;20759;-66
2023/12/23 09:35:39;;;;;;;2.65;1.10;;;17.00;59.90;;;;;;5092160;28;20217;-67
2023/12/23 09:38:04;;;;;;;2.25;1.27;;;17.00;59.90;;;;;;5091791;28;20215;-67
2023/12/23 09:40:30;;;;;;;2.58;1.20;;;17.00;60.00;;;;;;5092217;28;20543;-66
2023/12/23 09:42:56;;;;;;;2.33;1.17;;;17.00;60.00;;;;;;5092372;28;20255;-67
2023/12/23 09:45:21;;;;;;;3.90;1.15;;;17.00;60.00;;;;;;5091373;28;20194;-66
2023/12/23 09:47:47;;;;;;;1.65;0.93;;;17.00;60.00;;;;;;5057451;28;20636;-66
2023/12/23 09:50:13;;;;;;;3.05;1.10;;;17.00;60.10;;;;;;5092190;28;20182;-67
2023/12/23 09:52:39;;;;;;;1.80;0.90;;;17.00;60.10;;;;;;5091229;28;20225;-67
2023/12/23 09:55:05;;;;;;;2.70;1.13;;;17.00;60.00;;;;;;5092214;28;20165;-66
2023/12/23 09:57:31;;;;;;;2.20;1.20;;;17.00;59.90;;;;;;5073735;28;20650;-67
2023/12/23 09:59:57;;;;;;;2.00;1.02;;;17.10;60.10;;;;;;5091491;28;20184;-66
2023/12/23 10:02:23;;;;;;;1.40;0.93;;;17.10;59.90;;;;;;5091796;28;20177;-65
2023/12/23 10:04:48;;;;;;;2.20;1.13;;;17.10;59.90;;;;;;5091236;28;20264;-65
2023/12/23 10:07:17;;;;;;;2.38;1.20;;;17.00;60.00;;;;;;5073874;28;20355;-67
2023/12/23 10:09:42;;;;;;;1.92;0.85;;;17.00;60.00;;;;;;5092168;28;20265;-67
2023/12/23 10:12:08;;;;;;;1.63;0.93;;;16.90;60.10;;;;;;5091390;28;20166;-66
2023/12/23 10:14:34;;;;;;;3.15;1.15;;;16.90;60.20;;;;;;5091769;28;20174;-66
2023/12/23 10:16:59;;;;;;;2.08;1.10;;;16.90;60.40;;;;;;5091967;28;20214;-66
2023/12/23 10:19:25;;;;;;;1.65;0.90;;;16.80;60.40;;;;;;5072776;28;20532;-66
2023/12/23 10:21:51;;;;;;;1.08;0.88;;;16.80;60.40;;;;;;5092118;28;20224;-66
2023/12/23 10:24:16;;;;;;;1.73;1.02;;;16.80;60.40;;;;;;5091705;28;20174;-65
2023/12/23 10:26:42;;;;;;;2.53;1.15;;;16.80;60.40;;;;;;5091114;28;20181;-66
2023/12/23 10:29:09;;;;;;;2.42;0.90;;;16.90;60.40;;;;;;5094622;28;20161;-67
2023/12/23 10:31:34;;;;;;;3.03;1.27;;;16.90;60.40;;;;;;5077468;28;20188;-67
2023/12/23 10:34:02;;;;;;;2.40;1.00;;;16.90;60.40;;;;;;5060310;28;20170;-67
2023/12/23 10:36:27;;;;;;;1.75;1.10;;;16.90;60.40;;;;;;5061095;28;20218;-67
2023/12/23 10:38:55;;;;;;;3.53;1.15;;;16.90;60.30;;;;;;5095813;28;20188;-69
2023/12/23 10:41:35;;;;;;;1.50;0.93;;;16.80;60.40;;;;;;5094751;28;20178;-67
2023/12/23 10:44:00;;;;;;;2.35;1.13;;;16.80;60.40;;;;;;5061617;28;20264;-66
2023/12/23 10:46:26;;;;;;;2.63;0.93;;;16.70;60.50;;;;;;5077124;28;20260;-66
2023/12/23 10:48:55;;;;;;;1.25;1.10;;;16.70;60.50;;;;;;5076761;28;20193;-66
2023/12/23 10:51:21;;;;;;;1.10;0.70;;;16.70;60.70;;;;;;5077186;28;20177;-66
2023/12/23 10:53:47;;;;;;;3.10;1.45;;;16.70;60.70;;;;;;5077060;28;20229;-67
2023/12/23 10:56:13;;;;;;;1.63;1.23;;;16.70;60.70;;;;;;5076472;28;20263;-67
2023/12/23 10:58:39;;;;;;;2.92;0.80;;;16.80;60.80;;;;;;5095081;28;20189;-66
2023/12/23 11:01:04;;;;;;;2.22;0.85;;;16.80;60.70;;;;;;5094367;28;20284;-66
2023/12/23 11:03:32;;;;;;;1.85;0.77;;;16.80;60.70;;;;;;5076912;28;20265;-66
2023/12/23 11:05:57;;;;;;;2.75;0.98;;;16.80;60.70;;;;;;5095137;28;20625;-67
2023/12/23 11:08:23;;;;;;;1.73;0.82;;;16.80;60.60;;;;;;5076016;28;20170;-67
2023/12/23 11:10:49;;;;;;;2.10;0.93;;;16.70;60.60;;;;;;5077078;28;20177;-67
2023/12/23 11:13:15;;;;;;;1.67;0.93;;;16.70;60.70;;;;;;5076687;28;20166;-67
2023/12/23 11:15:42;;;;;;;2.65;1.00;;;16.60;60.80;;;;;;5076184;28;20691;-67
2023/12/23 11:18:08;;;;;;;2.15;1.10;;;16.60;60.90;;;;;;5095147;28;20178;-67
2023/12/23 11:20:37;;;;;;;2.47;1.25;;;16.60;61.00;;;;;;5094463;28;20197;-66
2023/12/23 11:23:29;;;;;;;3.03;1.20;;;16.60;61.00;;;;;;5094046;28;20731;-66
2023/12/23 11:25:55;;;;;;;1.35;1.05;;;16.60;61.00;;;;;;5084146;28;20190;-66
2023/12/23 11:28:20;;;;;;;1.40;0.80;;;16.60;61.00;;;;;;5093710;28;20186;-66
2023/12/23 11:30:49;;;;;;;2.10;1.20;;;16.70;61.00;;;;;;5094110;28;20170;-66
2023/12/23 11:33:18;;;;;;;2.65;0.98;;;16.70;61.00;;;;;;5094292;28;20574;-67
2023/12/23 11:35:51;;;;;;;2.08;1.00;;;16.60;61.00;;;;;;5094563;28;20287;-67
2023/12/23 11:38:16;;;;;;;2.90;1.05;;;16.60;61.00;;;;;;5093464;28;20260;-67
2023/12/23 11:40:42;;;;;;;1.85;0.88;;;16.60;61.10;;;;;;5094128;28;20604;-66
2023/12/23 11:43:08;;;;;;;2.75;0.95;;;16.50;61.10;;;;;;5094205;28;20173;-67
2023/12/23 11:45:33;;;;;;;2.40;0.85;;;16.50;61.20;;;;;;5093927;28;20571;-67
2023/12/23 11:47:59;;;;;;;3.00;1.35;;;16.50;61.20;;;;;;5094310;28;20694;-67
2023/12/23 11:50:24;;;;;;;4.95;1.23;;;16.50;61.30;;;;;;5075131;28;20540;-67
2023/12/23 11:52:50;;;;;;;1.98;1.02;;;16.50;61.30;;;;;;5094091;28;20225;-66
2023/12/23 11:55:16;;;;;;;1.95;1.00;;;16.50;62.10;;;;;;5093666;28;20635;-67
2023/12/23 11:57:41;;;;;;;2.30;1.00;;;16.60;61.30;;;;;;5093582;28;20175;-66
2023/12/23 12:00:07;;;;;;;1.63;0.82;;;16.50;61.20;;;;;;5094298;28;20166;-65
2023/12/23 12:02:33;;;;;;;2.80;1.00;;;16.60;61.20;;;;;;5093730;28;20634;-64
2023/12/23 12:04:58;;;;;;;2.53;1.05;;;16.50;61.20;;;;;;5093297;28;20204;-65
2023/12/23 12:07:25;;;;;;;1.77;0.85;;;16.50;61.20;;;;;;5093592;28;20197;-67
2023/12/23 12:09:50;;;;;;;2.83;1.00;;;16.60;61.20;;;;;;5093716;28;20216;-67
2023/12/23 12:12:16;;;;;;;1.92;0.82;;;16.50;61.20;;;;;;5093117;28;20594;-66
2023/12/23 12:14:42;;;;;;;1.42;1.00;;;16.50;61.30;;;;;;5093846;28;20201;-66
2023/12/23 12:17:07;;;;;;;2.03;1.10;;;16.50;61.30;;;;;;5093689;28;20218;-66
2023/12/23 12:19:34;;;;;;;1.80;1.27;;;16.50;61.30;;;;;;5092596;28;20226;-66
2023/12/23 12:21:59;;;;;;;2.75;0.93;;;16.40;61.30;;;;;;5093530;28;20572;-66
2023/12/23 12:24:25;;;;;;;2.30;1.05;;;16.40;61.30;;;;;;5093266;28;20254;-66
2023/12/23 12:26:56;;;;;;;1.98;0.98;;;16.50;61.40;;;;;;5093055;28;20229;-66
2023/12/23 12:29:22;;;;;;;1.67;1.10;;;16.50;61.30;;;;;;5093334;28;20192;-66
2023/12/23 12:31:52;;;;;;;2.10;0.93;;;16.50;61.30;;;;;;5093340;28;20640;-67
2023/12/23 12:34:18;;;;;;;1.63;1.05;;;16.50;61.30;;;;;;5092424;28;20180;-67
2023/12/23 12:36:44;;;;;;;2.95;1.20;;;16.50;61.30;;;;;;5093285;28;20205;-66
2023/12/23 12:39:10;;;;;;;2.28;1.10;;;16.50;61.30;;;;;;5093268;28;20232;-67
2023/12/23 12:41:37;;;;;;;2.45;1.27;;;16.40;61.30;;;;;;5057874;28;20231;-66